createdAt,value
2023-03-14T00:00:25.019Z,91.70
2023-03-14T00:02:57.544Z,91.50
2023-03-14T00:05:27.232Z,91.40
2023-03-14T00:07:56.783Z,91.40
2023-03-14T00:10:26.043Z,91.20
2023-03-14T00:12:55.397Z,91.20
2023-03-14T00:15:24.588Z,91.20
2023-03-14T00:17:53.731Z,91.20
2023-03-14T00:20:23.349Z,91.20
2023-03-14T00:22:52.900Z,91.30
2023-03-14T00:25:22.197Z,91.10
2023-03-14T00:27:54.197Z,91.30
2023-03-14T00:30:23.620Z,91.10
2023-03-14T00:32:52.856Z,91.10
2023-03-14T00:35:22.188Z,90.80
2023-03-14T00:37:51.318Z,90.80
2023-03-14T00:40:20.536Z,91.00
2023-03-14T00:42:49.686Z,91.00
2023-03-14T00:45:19.000Z,91.00
2023-03-14T00:47:48.178Z,90.80
2023-03-14T00:50:17.601Z,90.60
2023-03-14T00:52:48.437Z,90.50
2023-03-14T00:55:17.676Z,90.30
2023-03-14T00:57:46.855Z,90.30
2023-03-14T01:00:16.746Z,90.20
2023-03-14T01:02:46.521Z,90.00
2023-03-14T01:05:15.737Z,89.70
2023-03-14T01:07:44.884Z,89.70
2023-03-14T01:10:14.202Z,90.10
2023-03-14T01:12:43.521Z,89.40
2023-03-14T01:15:13.181Z,89.10
2023-03-14T01:17:42.418Z,88.90
2023-03-14T01:20:15.907Z,88.90
2023-03-14T01:22:46.299Z,88.80
2023-03-14T01:25:19.164Z,88.40
2023-03-14T01:27:48.607Z,88.20
2023-03-14T01:30:17.900Z,88.00
2023-03-14T01:32:47.222Z,88.10
2023-03-14T01:35:16.426Z,87.80
2023-03-14T01:37:45.589Z,87.80
2023-03-14T01:40:18.356Z,87.40
2023-03-14T01:43:08.293Z,87.60
2023-03-14T01:46:42.903Z,87.50
2023-03-14T01:49:38.056Z,87.40
2023-03-14T01:52:14.476Z,87.30
2023-03-14T01:55:09.823Z,86.90
2023-03-14T01:58:08.853Z,87.10
2023-03-14T02:00:42.073Z,86.90
2023-03-14T02:03:23.581Z,86.80
2023-03-14T02:05:53.615Z,86.50
2023-03-14T02:08:26.590Z,86.40
2023-03-14T02:10:59.199Z,86.50
2023-03-14T02:13:33.325Z,86.50
2023-03-14T02:16:05.224Z,86.30
2023-03-14T02:18:42.485Z,86.20
2023-03-14T02:21:45.094Z,86.10
2023-03-14T02:24:49.658Z,85.90
2023-03-14T02:27:22.019Z,86.70
2023-03-14T02:30:05.667Z,85.80
2023-03-14T02:32:41.761Z,85.60
2023-03-14T02:35:17.992Z,85.50
2023-03-14T02:38:29.340Z,85.40
2023-03-14T02:40:58.425Z,85.40
2023-03-14T02:43:27.792Z,85.30
2023-03-14T02:45:57.700Z,84.90
2023-03-14T02:48:37.351Z,85.10
2023-03-14T02:51:06.884Z,85.00
2023-03-14T02:53:39.562Z,84.80
2023-03-14T02:56:09.854Z,84.80
2023-03-14T02:58:45.621Z,84.40
2023-03-14T03:01:21.302Z,84.50
2023-03-14T03:03:51.084Z,84.30
2023-03-14T03:06:20.234Z,84.30
2023-03-14T03:11:31.915Z,84.20
2023-03-14T03:14:01.037Z,83.80
2023-03-14T03:16:30.336Z,83.80
2023-03-14T03:18:59.630Z,83.80
2023-03-14T03:21:29.085Z,83.90
2023-03-14T03:23:58.668Z,84.00
2023-03-14T03:26:27.885Z,83.60
2023-03-14T03:28:57.023Z,83.60
2023-03-14T03:31:26.160Z,83.40
2023-03-14T03:33:56.028Z,83.30
2023-03-14T03:36:28.024Z,82.60
2023-03-14T03:38:57.126Z,82.40
2023-03-14T03:41:26.642Z,82.50
2023-03-14T03:43:56.249Z,82.90
2023-03-14T03:46:26.098Z,82.80
2023-03-14T03:49:02.846Z,82.70
2023-03-14T03:51:32.074Z,82.30
2023-03-14T03:54:01.316Z,83.00
2023-03-14T03:56:30.537Z,82.20
2023-03-14T03:58:59.994Z,82.00
2023-03-14T04:01:29.085Z,82.30
2023-03-14T04:03:58.468Z,82.20
2023-03-14T04:06:27.797Z,81.80
2023-03-14T04:08:57.575Z,81.50
2023-03-14T04:11:26.789Z,81.30
2023-03-14T04:13:56.001Z,81.30
2023-03-14T04:16:27.512Z,81.10
2023-03-14T04:18:56.700Z,80.90
2023-03-14T04:21:26.258Z,80.40
2023-03-14T04:23:55.435Z,80.80
2023-03-14T04:26:24.713Z,80.70
2023-03-14T04:28:53.818Z,80.70
2023-03-14T04:31:24.362Z,80.60
2023-03-14T04:33:53.875Z,80.10
2023-03-14T04:36:23.044Z,80.10
2023-03-14T04:38:52.128Z,80.20
2023-03-14T04:41:21.247Z,80.10
2023-03-14T04:43:50.366Z,80.10
2023-03-14T04:46:19.639Z,80.20
2023-03-14T04:48:48.765Z,79.40
2023-03-14T04:51:17.858Z,79.30
2023-03-14T04:53:47.036Z,78.70
2023-03-14T04:56:16.149Z,78.80
2023-03-14T04:58:46.419Z,78.30
2023-03-14T05:01:15.659Z,77.60
2023-03-14T05:03:44.733Z,78.00
2023-03-14T05:06:13.916Z,77.80
2023-03-14T05:08:43.012Z,78.10
2023-03-14T05:11:14.802Z,78.30
2023-03-14T05:13:43.937Z,77.50
2023-03-14T05:16:14.090Z,77.20
2023-03-14T05:18:43.269Z,76.80
2023-03-14T05:21:12.477Z,76.70
2023-03-14T05:23:41.594Z,76.40
2023-03-14T05:26:10.721Z,76.90
2023-03-14T05:28:39.858Z,76.50
2023-03-14T05:31:13.117Z,76.60
2023-03-14T05:33:43.196Z,76.60
2023-03-14T05:36:12.531Z,76.50
2023-03-14T05:38:41.656Z,76.20
2023-03-14T05:41:10.884Z,75.40
2023-03-14T05:43:39.964Z,75.10
2023-03-14T05:46:09.293Z,74.60
2023-03-14T05:48:38.554Z,74.60
2023-03-14T05:51:08.148Z,74.50
2023-03-14T05:53:37.267Z,75.90
2023-03-14T05:56:06.793Z,73.70
2023-03-14T05:58:35.876Z,73.20
2023-03-14T06:01:07.873Z,74.20
2023-03-14T06:03:37.739Z,74.30
2023-03-14T06:06:07.124Z,73.20
2023-03-14T06:08:36.518Z,73.10
2023-03-14T06:11:07.049Z,73.20
2023-03-14T06:13:36.184Z,73.60
2023-03-14T06:16:05.666Z,73.30
2023-03-14T06:18:34.806Z,73.50
2023-03-14T06:21:04.015Z,73.50
2023-03-14T06:23:33.743Z,72.10
2023-03-14T06:26:03.033Z,72.20
2023-03-14T06:28:32.125Z,71.00
2023-03-14T06:31:02.951Z,71.70
2023-03-14T06:33:32.225Z,71.40
2023-03-14T06:36:01.528Z,72.10
2023-03-14T06:38:30.675Z,72.00
2023-03-14T06:41:08.961Z,71.80
2023-03-14T06:43:38.129Z,70.90
2023-03-14T06:46:07.703Z,70.70
2023-03-14T06:48:36.912Z,70.60
2023-03-14T06:51:06.461Z,70.80
2023-03-14T06:53:35.644Z,71.10
2023-03-14T06:56:05.103Z,70.50
2023-03-14T06:58:34.197Z,69.70
2023-03-14T07:01:03.747Z,69.60
2023-03-14T07:03:33.107Z,70.40
2023-03-14T07:06:02.332Z,69.30
2023-03-14T07:08:31.413Z,69.10
2023-03-14T07:11:00.554Z,69.30
2023-03-14T07:13:29.693Z,68.70
2023-03-14T07:15:58.879Z,68.30
2023-03-14T07:18:28.102Z,68.80
2023-03-14T07:20:59.602Z,69.50
2023-03-14T07:23:29.698Z,68.80
2023-03-14T07:25:58.983Z,69.20
2023-03-14T07:28:29.216Z,69.00
2023-03-14T07:30:58.737Z,68.80
2023-03-14T07:33:27.899Z,68.80
2023-03-14T07:35:57.116Z,69.20
2023-03-14T07:38:26.384Z,68.50
2023-03-14T07:41:07.040Z,68.20
2023-03-14T07:43:36.592Z,67.70
2023-03-14T07:46:05.888Z,66.80
2023-03-14T07:48:36.341Z,66.50
2023-03-14T07:51:05.715Z,67.20
2023-03-14T07:53:34.865Z,66.80
2023-03-14T07:56:04.013Z,66.10
2023-03-14T07:58:33.328Z,66.30
2023-03-14T08:01:02.728Z,66.00
2023-03-14T08:03:31.835Z,66.10
2023-03-14T08:06:01.153Z,66.70
2023-03-14T08:08:30.313Z,66.40
2023-03-14T08:11:10.622Z,66.20
2023-03-14T08:13:41.726Z,66.20
2023-03-14T08:16:11.567Z,66.30
2023-03-14T08:18:40.877Z,65.40
2023-03-14T08:21:09.991Z,65.20
2023-03-14T08:23:39.145Z,65.60
2023-03-14T08:26:08.975Z,66.50
2023-03-14T08:28:38.283Z,65.60
2023-03-14T08:31:07.790Z,65.60
2023-03-14T08:33:36.996Z,65.70
2023-03-14T08:36:06.678Z,66.00
2023-03-14T08:38:35.869Z,65.70
2023-03-14T08:41:07.579Z,65.80
2023-03-14T08:43:37.057Z,66.20
2023-03-14T08:46:06.582Z,65.80
2023-03-14T08:48:35.724Z,66.00
2023-03-14T08:51:14.727Z,65.20
2023-03-14T08:53:44.391Z,65.20
2023-03-14T08:56:13.538Z,65.40
2023-03-14T08:58:43.349Z,65.80
2023-03-14T09:01:13.875Z,65.80
2023-03-14T09:03:43.147Z,66.00
2023-03-14T09:06:13.262Z,66.30
2023-03-14T09:08:42.363Z,66.00
2023-03-14T09:11:11.746Z,66.20
2023-03-14T09:13:40.918Z,66.10
2023-03-14T09:16:11.049Z,66.10
2023-03-14T09:18:40.204Z,66.90
2023-03-14T09:21:09.757Z,66.40
2023-03-14T09:23:39.047Z,66.60
2023-03-14T09:26:08.971Z,66.10
2023-03-14T09:28:39.028Z,66.20
2023-03-14T09:31:14.032Z,66.40
2023-03-14T09:33:43.323Z,66.10
2023-03-14T09:36:13.028Z,66.20
2023-03-14T09:38:42.285Z,66.40
2023-03-14T09:41:29.923Z,66.90
2023-03-14T09:44:08.406Z,66.90
2023-03-14T09:46:41.751Z,66.90
2023-03-14T09:49:34.673Z,67.30
2023-03-14T09:52:34.503Z,67.80
2023-03-14T09:55:09.489Z,67.60
2023-03-14T09:57:39.601Z,67.40
2023-03-14T10:00:24.343Z,67.40
2023-03-14T10:02:59.045Z,67.70
2023-03-14T10:05:31.515Z,67.80
2023-03-14T10:08:00.932Z,68.10
2023-03-14T10:10:30.522Z,68.20
2023-03-14T10:13:10.589Z,68.60
2023-03-14T10:15:41.016Z,68.60
2023-03-14T10:18:16.226Z,68.50
2023-03-14T10:20:50.001Z,68.80
2023-03-14T10:23:19.108Z,68.80
2023-03-14T10:26:17.862Z,69.00
2023-03-14T10:29:12.565Z,69.10
2023-03-14T10:32:02.865Z,69.20
2023-03-14T10:34:39.595Z,69.60
2023-03-14T10:37:29.518Z,69.60
2023-03-14T10:40:07.633Z,70.10
2023-03-14T10:42:46.463Z,69.90
2023-03-14T10:45:38.345Z,70.10
2023-03-14T10:48:31.070Z,70.50
2023-03-14T10:51:32.341Z,70.60
2023-03-14T10:54:16.321Z,70.90
2023-03-14T10:56:45.581Z,71.00
2023-03-14T10:59:18.260Z,71.10
2023-03-14T11:02:33.808Z,71.60
2023-03-14T11:05:12.132Z,72.60
2023-03-14T11:07:47.430Z,72.80
2023-03-14T11:10:34.946Z,72.80
2023-03-14T11:13:57.177Z,73.60
2023-03-14T11:17:33.217Z,73.90
2023-03-14T11:20:33.161Z,73.60
2023-03-14T11:23:25.731Z,74.80
2023-03-14T11:26:30.313Z,74.50
2023-03-14T11:29:19.939Z,74.90
2023-03-14T11:31:50.272Z,74.80
2023-03-14T11:34:38.813Z,75.40
2023-03-14T11:37:23.360Z,75.20
2023-03-14T11:40:23.005Z,75.50
2023-03-14T11:43:22.992Z,76.30
2023-03-14T11:45:55.338Z,76.80
2023-03-14T11:48:39.504Z,76.00
2023-03-14T11:51:29.811Z,76.20
2023-03-14T11:54:13.843Z,76.80
2023-03-14T11:57:06.507Z,76.70
2023-03-14T11:59:57.127Z,76.60
2023-03-14T12:03:09.558Z,76.90
2023-03-14T12:06:17.204Z,78.30
2023-03-14T12:09:20.959Z,77.40
2023-03-14T12:12:08.536Z,77.90
2023-03-14T12:14:48.538Z,78.20
2023-03-14T12:17:43.881Z,78.80
2023-03-14T12:20:28.559Z,78.80
2023-03-14T12:23:06.164Z,78.70
2023-03-14T12:25:36.936Z,78.80
2023-03-14T12:28:33.204Z,79.10
2023-03-14T12:31:34.053Z,79.20
2023-03-14T12:34:15.059Z,79.30
2023-03-14T12:36:55.551Z,79.80
2023-03-14T12:40:01.385Z,80.00
2023-03-14T12:42:47.927Z,79.90
2023-03-14T12:45:37.693Z,80.10
2023-03-14T12:48:40.506Z,80.20
2023-03-14T12:51:22.745Z,81.00
2023-03-14T12:54:32.170Z,80.60
2023-03-14T12:57:28.985Z,80.30
2023-03-14T13:00:21.708Z,80.40
2023-03-14T13:02:52.399Z,80.30
2023-03-14T13:05:28.130Z,80.80
2023-03-14T13:07:57.202Z,80.20
2023-03-14T13:10:38.098Z,80.20
2023-03-14T13:13:28.055Z,80.20
2023-03-14T13:16:06.602Z,80.70
2023-03-14T13:18:47.285Z,80.80
2023-03-14T13:21:22.887Z,81.10
2023-03-14T13:24:02.994Z,80.60
2023-03-14T13:26:50.720Z,80.70
2023-03-14T13:29:24.516Z,81.00
2023-03-14T13:32:00.715Z,81.10
2023-03-14T13:34:33.925Z,81.30
2023-03-14T13:37:03.855Z,81.40
2023-03-14T13:39:34.933Z,81.50
2023-03-14T13:42:05.225Z,81.60
2023-03-14T13:44:41.555Z,81.90
2023-03-14T13:47:23.460Z,82.50
2023-03-14T13:49:54.520Z,82.50
2023-03-14T13:52:39.275Z,82.50
2023-03-14T13:55:17.982Z,82.20
2023-03-14T13:57:57.766Z,82.40
2023-03-14T14:00:29.988Z,82.40
2023-03-14T14:03:02.367Z,82.40
2023-03-14T14:05:39.446Z,82.50
2023-03-14T14:08:09.391Z,82.60
2023-03-14T14:10:40.792Z,82.80
2023-03-14T14:13:20.708Z,82.90
2023-03-14T14:15:57.043Z,82.80
2023-03-14T14:18:30.909Z,82.60
2023-03-14T14:21:00.983Z,83.00
2023-03-14T14:23:38.075Z,82.90
2023-03-14T14:26:09.350Z,82.70
2023-03-14T14:28:40.290Z,82.50
2023-03-14T14:31:21.782Z,83.20
2023-03-14T14:34:06.777Z,82.50
2023-03-14T14:36:51.358Z,82.60
2023-03-14T14:39:33.043Z,82.80
2023-03-14T14:42:02.252Z,82.90
2023-03-14T14:44:38.601Z,83.00
2023-03-14T14:47:08.347Z,83.00
2023-03-14T14:49:37.499Z,83.30
2023-03-14T14:52:15.887Z,83.40
2023-03-14T14:54:56.637Z,83.60
2023-03-14T14:57:42.434Z,82.80
2023-03-14T15:00:22.412Z,83.30
2023-03-14T15:02:55.920Z,83.90
2023-03-14T15:05:32.878Z,83.60
2023-03-14T15:08:02.109Z,83.70
2023-03-14T15:10:31.331Z,84.00
2023-03-14T15:13:00.424Z,84.40
2023-03-14T15:15:29.748Z,84.60
2023-03-14T15:17:59.325Z,84.90
2023-03-14T15:20:28.623Z,84.70
2023-03-14T15:22:57.939Z,84.90
2023-03-14T15:25:51.336Z,85.30
2023-03-14T15:28:25.511Z,85.40
2023-03-14T15:31:01.146Z,85.40
2023-03-14T15:33:31.014Z,85.70
2023-03-14T15:36:02.225Z,85.60
2023-03-14T15:38:31.585Z,86.10
2023-03-14T15:41:02.312Z,86.20
2023-03-14T15:43:31.624Z,86.40
2023-03-14T15:46:03.876Z,86.20
2023-03-14T15:48:33.166Z,86.30
2023-03-14T15:51:02.413Z,86.60
2023-03-14T15:53:31.917Z,86.70
2023-03-14T15:56:01.459Z,86.40
2023-03-14T15:58:30.746Z,86.40
2023-03-14T16:01:00.035Z,86.50
2023-03-14T16:03:30.785Z,86.60
2023-03-14T16:06:00.246Z,87.00
2023-03-14T16:08:31.679Z,87.40
2023-03-14T16:11:02.380Z,87.70
2023-03-14T16:13:31.765Z,87.90
2023-03-14T16:16:07.433Z,87.70
2023-03-14T16:18:40.340Z,87.70
2023-03-14T16:21:18.456Z,88.10
2023-03-14T16:23:51.569Z,88.50
2023-03-14T16:26:22.635Z,88.80
2023-03-14T16:28:51.863Z,88.90
2023-03-14T16:31:24.694Z,89.50
2023-03-14T16:33:54.035Z,89.30
2023-03-14T16:36:23.408Z,89.60
2023-03-14T16:38:52.786Z,89.40
2023-03-14T16:41:24.088Z,89.70
2023-03-14T16:43:55.319Z,89.70
2023-03-14T16:46:26.602Z,89.50
2023-03-14T16:48:56.934Z,89.90
2023-03-14T16:51:26.777Z,90.10
2023-03-14T16:53:56.458Z,90.10
2023-03-14T16:56:26.108Z,90.00
2023-03-14T16:58:55.319Z,90.00
2023-03-14T17:01:24.820Z,89.90
2023-03-14T17:03:54.589Z,90.10
2023-03-14T17:06:29.915Z,89.90
2023-03-14T17:09:00.581Z,89.80
2023-03-14T17:11:29.899Z,89.80
2023-03-14T17:13:59.267Z,89.90
2023-03-14T17:16:29.393Z,90.00
2023-03-14T17:18:59.314Z,90.30
2023-03-14T17:21:28.724Z,90.00
2023-03-14T17:23:58.845Z,89.90
2023-03-14T17:26:28.077Z,90.20
2023-03-14T17:28:57.581Z,90.20
2023-03-14T17:31:27.073Z,90.30
2023-03-14T17:33:56.401Z,90.30
2023-03-14T17:36:29.895Z,90.30
2023-03-14T17:38:59.305Z,90.40
2023-03-14T17:41:29.219Z,90.40
2023-03-14T17:43:58.839Z,90.40
2023-03-14T17:46:28.265Z,90.40
2023-03-14T17:48:57.586Z,90.40
2023-03-14T17:51:26.873Z,90.30
2023-03-14T17:53:56.150Z,90.20
2023-03-14T17:56:26.063Z,90.40
2023-03-14T17:58:55.348Z,90.30
2023-03-14T18:01:24.717Z,90.80
2023-03-14T18:03:57.390Z,90.70
2023-03-14T18:06:31.114Z,90.60
2023-03-14T18:09:02.468Z,90.60
2023-03-14T18:11:31.763Z,90.90
2023-03-14T18:14:08.598Z,91.20
2023-03-14T18:16:38.364Z,91.50
2023-03-14T18:19:07.545Z,91.50
2023-03-14T18:21:37.151Z,91.00
2023-03-14T18:24:06.752Z,90.80
2023-03-14T18:26:36.088Z,90.90
2023-03-14T18:29:05.556Z,91.10
2023-03-14T18:31:35.912Z,91.10
2023-03-14T18:34:05.121Z,91.00
2023-03-14T18:36:34.381Z,91.00
2023-03-14T18:39:07.166Z,90.80
2023-03-14T18:41:37.793Z,90.80
2023-03-14T18:44:07.031Z,91.10
2023-03-14T18:46:36.273Z,91.30
2023-03-14T18:49:05.517Z,91.40
2023-03-14T18:51:35.269Z,91.20
2023-03-14T18:54:11.777Z,91.40
2023-03-14T18:56:42.654Z,91.70
2023-03-14T18:59:13.345Z,91.70
2023-03-14T19:01:44.104Z,91.70
2023-03-14T19:04:13.279Z,91.70
2023-03-14T19:06:42.679Z,91.80
2023-03-14T19:09:16.928Z,92.00
2023-03-14T19:11:46.531Z,92.30
2023-03-14T19:14:18.647Z,92.30
2023-03-14T19:16:48.645Z,92.20
2023-03-14T19:19:18.021Z,92.30
2023-03-14T19:21:47.233Z,92.40
2023-03-14T19:24:23.780Z,92.60
2023-03-14T19:26:54.865Z,92.70
2023-03-14T19:29:25.047Z,92.90
2023-03-14T19:31:55.210Z,92.80
2023-03-14T19:34:24.502Z,92.90
2023-03-14T19:36:53.715Z,93.00
2023-03-14T19:39:22.927Z,93.00
2023-03-14T19:42:06.925Z,92.90
2023-03-14T19:44:36.108Z,92.90
2023-03-14T19:47:07.667Z,93.00
2023-03-14T19:49:37.231Z,93.00
2023-03-14T19:52:06.843Z,93.00
2023-03-14T19:54:36.223Z,93.00
2023-03-14T19:57:06.883Z,93.10
2023-03-14T19:59:36.331Z,93.10
2023-03-14T20:02:06.024Z,93.20
2023-03-14T20:04:35.297Z,93.30
2023-03-14T20:07:05.800Z,93.40
2023-03-14T20:09:35.068Z,93.10
2023-03-14T20:12:04.370Z,93.00
2023-03-14T20:14:34.039Z,93.10
2023-03-14T20:17:03.772Z,93.20
2023-03-14T20:19:33.202Z,93.00
2023-03-14T20:22:03.965Z,93.10
2023-03-14T20:24:33.769Z,93.30
2023-03-14T20:27:03.420Z,93.20
2023-03-14T20:29:32.704Z,93.10
2023-03-14T20:32:02.042Z,93.20
2023-03-14T20:34:33.548Z,93.40
2023-03-14T20:37:04.230Z,93.40
2023-03-14T20:39:34.843Z,93.50
2023-03-14T20:42:05.239Z,93.50
2023-03-14T20:44:34.514Z,93.40
2023-03-14T20:47:04.722Z,93.30
2023-03-14T20:49:34.061Z,93.50
2023-03-14T20:52:03.277Z,93.50
2023-03-14T20:54:32.785Z,93.30
2023-03-14T20:57:02.050Z,93.20
2023-03-14T20:59:31.596Z,93.20
2023-03-14T21:02:01.129Z,93.20
2023-03-14T21:04:31.000Z,93.20
2023-03-14T21:07:00.442Z,93.30
2023-03-14T21:09:30.016Z,93.40
2023-03-14T21:11:59.273Z,93.40
2023-03-14T21:14:28.603Z,93.70
2023-03-14T21:16:59.695Z,93.70
2023-03-14T21:19:32.096Z,93.70
2023-03-14T21:22:05.014Z,93.80
2023-03-14T21:24:35.401Z,93.90
2023-03-14T21:27:04.740Z,93.90
2023-03-14T21:29:37.952Z,94.10
2023-03-14T21:32:08.669Z,94.00
2023-03-14T21:34:38.572Z,93.90
2023-03-14T21:37:07.914Z,94.00
2023-03-14T21:39:37.151Z,94.00
2023-03-14T21:42:06.793Z,94.00
2023-03-14T21:44:38.321Z,94.10
2023-03-14T21:47:10.880Z,93.90
2023-03-14T21:49:40.334Z,93.90
2023-03-14T21:52:14.312Z,94.00
2023-03-14T21:54:46.691Z,93.90
2023-03-14T21:57:18.004Z,93.80
2023-03-14T21:59:48.769Z,93.90
2023-03-14T22:02:21.740Z,94.00
2023-03-14T22:04:51.077Z,94.10
2023-03-14T22:07:20.656Z,93.90
2023-03-14T22:09:58.609Z,94.10
2023-03-14T22:12:27.857Z,94.10
2023-03-14T22:14:57.153Z,94.10
2023-03-14T22:17:26.875Z,94.10
2023-03-14T22:19:56.593Z,94.30
2023-03-14T22:22:27.151Z,94.30
2023-03-14T22:24:57.497Z,94.10
2023-03-14T22:27:26.836Z,93.90
2023-03-14T22:29:56.050Z,94.30
2023-03-14T22:32:25.298Z,94.40
2023-03-14T22:34:54.717Z,94.60
2023-03-14T22:37:24.569Z,94.50
2023-03-14T22:39:53.914Z,94.80
2023-03-14T22:42:23.162Z,94.50
2023-03-14T22:44:54.447Z,94.40
2023-03-14T22:47:23.973Z,94.30
2023-03-14T22:49:53.218Z,94.40
2023-03-14T22:52:22.471Z,94.50
2023-03-14T22:54:56.849Z,94.50
2023-03-14T22:57:26.231Z,94.60
2023-03-14T22:59:55.656Z,94.60
2023-03-14T23:02:24.958Z,94.50
2023-03-14T23:04:54.321Z,94.30
2023-03-14T23:07:23.526Z,94.40
2023-03-14T23:09:52.875Z,94.10
2023-03-14T23:12:22.704Z,94.20
2023-03-14T23:14:51.942Z,94.70
2023-03-14T23:17:21.216Z,95.00
2023-03-14T23:19:50.504Z,95.20
2023-03-14T23:22:19.664Z,95.50
2023-03-14T23:24:49.638Z,95.30
2023-03-14T23:27:19.540Z,95.20
2023-03-14T23:29:49.100Z,95.40
2023-03-14T23:32:18.632Z,95.60
2023-03-14T23:34:47.842Z,95.60
2023-03-14T23:37:17.049Z,95.70
2023-03-14T23:39:49.425Z,95.50
2023-03-14T23:42:18.987Z,95.50
2023-03-14T23:44:48.204Z,95.50
2023-03-14T23:47:17.605Z,95.30
2023-03-14T23:49:46.873Z,95.00
2023-03-14T23:52:16.151Z,95.30
2023-03-14T23:54:45.420Z,95.40
2023-03-14T23:57:14.937Z,95.30
2023-03-14T23:59:44.264Z,95.30
